Time;durP1;ratioP1;P1;durP2;ratioP2;P2;SDS_P1;SDS_P2;PMS_P1;PMS_P2;Temp;Humidity;BMP_temperature;BMP_pressure;BME280_temperature;BME280_humidity;BME280_pressure;Samples;Min_cycle;Max_cycle;Signal;HPM_P1;HPM_P2
2022/08/30 00:04:01;;;;;;;8.00;5.13;;;23.30;60.20;;;;;;6214783;28;20124;-70
2022/08/30 00:07:02;;;;;;;5.55;4.30;;;23.30;60.20;;;;;;6215611;28;20095;-71
2022/08/30 00:10:04;;;;;;;7.15;5.28;;;23.30;60.20;;;;;;6215205;28;20076;-72
2022/08/30 00:13:06;;;;;;;8.05;4.88;;;23.30;60.20;;;;;;6215422;28;20104;-71
2022/08/30 00:16:07;;;;;;;6.95;4.88;;;23.30;60.20;;;;;;6215626;28;20026;-71
2022/08/30 00:19:08;;;;;;;6.35;4.70;;;23.20;60.00;;;;;;6215696;28;20058;-71
2022/08/30 00:22:08;;;;;;;5.53;4.20;;;23.30;60.20;;;;;;6215712;28;20034;-72
2022/08/30 00:25:11;;;;;;;5.70;4.63;;;23.20;60.00;;;;;;6216965;28;20029;-71
2022/08/30 00:28:13;;;;;;;5.18;4.15;;;23.30;60.20;;;;;;6217110;28;20052;-71
2022/08/30 00:31:13;;;;;;;4.95;3.97;;;23.20;60.10;;;;;;6216852;28;20060;-72
2022/08/30 00:34:15;;;;;;;7.38;4.68;;;23.20;61.00;;;;;;6216898;28;20018;-71
2022/08/30 00:37:16;;;;;;;5.45;4.25;;;23.20;60.10;;;;;;6215927;28;20029;-71
2022/08/30 00:40:19;;;;;;;5.47;4.22;;;23.30;60.20;;;;;;6215085;28;20041;-71
2022/08/30 00:43:25;;;;;;;6.32;4.40;;;23.20;60.20;;;;;;6214354;28;20227;-71
2022/08/30 00:46:26;;;;;;;5.20;4.10;;;23.20;60.10;;;;;;6215052;28;20061;-71
2022/08/30 00:49:28;;;;;;;5.68;4.35;;;23.20;60.10;;;;;;6214943;28;20022;-72
2022/08/30 00:52:29;;;;;;;4.60;3.85;;;23.20;60.10;;;;;;6214662;28;20033;-71
2022/08/30 00:55:30;;;;;;;5.20;3.75;;;23.20;60.10;;;;;;6220805;28;20033;-71
2022/08/30 00:58:37;;;;;;;4.63;3.83;;;23.20;60.20;;;;;;6209908;28;20164;-71
2022/08/30 01:01:38;;;;;;;5.65;3.70;;;23.20;60.20;;;;;;6215058;28;20022;-71
2022/08/30 01:04:41;;;;;;;5.72;4.05;;;23.20;60.20;;;;;;6214462;28;20491;-71
2022/08/30 01:07:42;;;;;;;5.03;3.78;;;23.20;60.20;;;;;;6186760;28;20023;-71
2022/08/30 01:10:43;;;;;;;4.38;3.65;;;23.20;60.20;;;;;;6198699;28;20022;-71
2022/08/30 01:13:46;;;;;;;4.80;3.50;;;23.20;60.20;;;;;;6213718;28;20021;-71
2022/08/30 01:16:47;;;;;;;5.93;4.10;;;23.20;60.20;;;;;;6214624;28;20033;-71
2022/08/30 01:19:54;;;;;;;4.53;3.65;;;23.20;60.20;;;;;;6216277;28;20110;-72
2022/08/30 01:23:03;;;;;;;5.22;3.70;;;23.20;60.20;;;;;;6191750;28;20117;-71
2022/08/30 01:26:05;;;;;;;4.60;3.72;;;23.20;60.20;;;;;;6217514;28;20037;-71
2022/08/30 01:29:11;;;;;;;5.53;3.75;;;23.20;60.20;;;;;;6214520;28;20034;-71
2022/08/30 01:32:21;;;;;;;4.53;3.70;;;23.20;60.20;;;;;;6214525;28;20029;-71
2022/08/30 01:35:22;;;;;;;4.40;3.60;;;23.20;60.20;;;;;;6220057;28;20041;-71
2022/08/30 01:38:29;;;;;;;4.28;3.33;;;23.20;60.20;;;;;;6215918;28;20451;-71
2022/08/30 01:41:33;;;;;;;3.58;2.83;;;23.20;60.20;;;;;;6214560;28;20054;-71
2022/08/30 01:44:34;;;;;;;4.35;3.00;;;23.20;60.20;;;;;;6213970;28;20037;-71
2022/08/30 01:47:35;;;;;;;5.15;3.25;;;23.20;60.20;;;;;;6213812;28;20517;-71
2022/08/30 01:50:35;;;;;;;4.00;3.17;;;23.20;60.20;;;;;;6199542;28;20030;-71
2022/08/30 01:53:37;;;;;;;4.00;2.88;;;23.20;60.20;;;;;;6215780;28;20018;-71
2022/08/30 01:56:38;;;;;;;4.28;3.20;;;23.20;60.20;;;;;;6215302;28;20101;-71
2022/08/30 01:59:42;;;;;;;4.13;2.90;;;23.20;60.20;;;;;;6215730;28;20074;-72
2022/08/30 02:02:43;;;;;;;4.13;3.00;;;23.20;60.20;;;;;;6214225;28;20025;-72
2022/08/30 02:05:44;;;;;;;4.18;3.00;;;23.20;60.20;;;;;;6213112;28;20083;-71
2022/08/30 02:08:45;;;;;;;4.13;3.13;;;23.20;60.20;;;;;;6214167;28;20014;-71
2022/08/30 02:11:47;;;;;;;3.15;2.85;;;23.20;60.20;;;;;;6213302;28;20018;-71
2022/08/30 02:14:47;;;;;;;4.68;3.40;;;23.20;60.20;;;;;;6213948;28;20066;-71
2022/08/30 02:17:48;;;;;;;3.33;2.80;;;23.20;60.30;;;;;;6213510;28;20034;-71
2022/08/30 02:20:49;;;;;;;3.50;2.63;;;23.20;60.20;;;;;;6213882;28;20047;-71
2022/08/30 02:23:50;;;;;;;4.05;3.00;;;23.20;60.20;;;;;;6213287;28;20113;-71
2022/08/30 02:26:54;;;;;;;3.85;2.45;;;23.20;60.30;;;;;;6215595;28;20030;-71
2022/08/30 02:29:54;;;;;;;3.92;3.03;;;23.20;60.20;;;;;;6222141;28;20233;-71
2022/08/30 02:32:55;;;;;;;3.72;2.88;;;23.20;60.30;;;;;;6217714;28;20061;-71
2022/08/30 02:35:56;;;;;;;3.65;2.95;;;23.20;61.30;;;;;;6217300;28;20036;-71
2022/08/30 02:38:56;;;;;;;4.70;3.20;;;23.20;60.30;;;;;;6217729;28;20388;-71
2022/08/30 02:41:57;;;;;;;3.15;2.55;;;23.20;60.30;;;;;;6216907;28;20073;-71
2022/08/30 02:44:58;;;;;;;3.38;2.70;;;23.20;60.30;;;;;;6223042;28;20488;-71
2022/08/30 02:47:59;;;;;;;4.35;2.83;;;23.20;60.40;;;;;;6217786;28;20105;-71
2022/08/30 02:51:09;;;;;;;2.65;2.10;;;23.20;60.30;;;;;;6218559;28;20030;-71
2022/08/30 02:54:14;;;;;;;3.35;2.58;;;23.20;60.20;;;;;;6217023;28;20030;-71
2022/08/30 02:57:15;;;;;;;3.00;2.50;;;23.20;60.30;;;;;;6216870;28;20026;-71
2022/08/30 03:00:19;;;;;;;4.00;2.65;;;23.20;60.30;;;;;;6217491;28;20106;-71
2022/08/30 03:03:20;;;;;;;3.70;3.00;;;23.20;60.30;;;;;;6216827;28;20033;-71
2022/08/30 03:06:21;;;;;;;3.33;2.80;;;23.20;60.30;;;;;;6223121;28;20446;-71
2022/08/30 03:09:21;;;;;;;3.15;2.50;;;23.20;60.30;;;;;;6218100;28;20026;-71
2022/08/30 03:12:22;;;;;;;3.58;2.47;;;23.20;60.30;;;;;;6218485;28;20071;-71
2022/08/30 03:15:26;;;;;;;3.88;2.80;;;23.20;60.30;;;;;;6218304;28;20029;-71
2022/08/30 03:18:27;;;;;;;3.38;2.58;;;23.20;60.30;;;;;;6222752;28;20037;-71
2022/08/30 03:21:28;;;;;;;3.78;2.67;;;23.20;60.30;;;;;;6217389;28;20064;-71
2022/08/30 03:24:28;;;;;;;3.38;2.28;;;23.20;60.30;;;;;;6216271;28;20034;-71
2022/08/30 03:27:29;;;;;;;3.10;2.38;;;23.20;60.30;;;;;;6216821;28;20393;-71
2022/08/30 03:30:29;;;;;;;3.15;2.55;;;23.20;61.10;;;;;;6217107;28;20483;-71
2022/08/30 03:33:30;;;;;;;2.58;2.38;;;23.20;60.30;;;;;;6215868;28;20529;-71
2022/08/30 03:36:31;;;;;;;3.30;2.70;;;23.20;60.30;;;;;;6216775;28;20609;-71
2022/08/30 03:39:32;;;;;;;2.83;2.38;;;23.20;60.30;;;;;;6215259;28;20061;-71
2022/08/30 03:42:33;;;;;;;3.63;2.50;;;23.20;60.30;;;;;;6216040;28;20064;-71
2022/08/30 03:45:34;;;;;;;2.58;2.22;;;23.20;60.30;;;;;;6222251;28;20115;-71
2022/08/30 03:48:35;;;;;;;2.58;2.08;;;23.20;60.30;;;;;;6216435;28;20026;-71
2022/08/30 03:51:36;;;;;;;2.53;2.13;;;23.20;60.30;;;;;;6216048;28;20090;-70
2022/08/30 03:54:38;;;;;;;2.20;2.00;;;23.20;60.30;;;;;;6215354;28;20090;-71
2022/08/30 03:57:41;;;;;;;3.28;2.38;;;23.20;60.30;;;;;;6215354;28;20036;-72
2022/08/30 04:00:41;;;;;;;2.10;1.80;;;23.20;60.30;;;;;;6216065;28;20097;-71
2022/08/30 04:03:42;;;;;;;3.55;2.25;;;23.20;60.40;;;;;;6214055;28;20026;-71
2022/08/30 04:06:43;;;;;;;2.60;2.03;;;23.20;60.30;;;;;;6215607;28;20360;-71
2022/08/30 04:09:44;;;;;;;2.20;1.88;;;23.20;60.40;;;;;;6215766;28;20022;-71
2022/08/30 04:12:44;;;;;;;2.63;2.20;;;23.20;60.30;;;;;;6215970;28;20040;-71
2022/08/30 04:15:45;;;;;;;3.20;2.08;;;23.20;60.40;;;;;;6220174;28;20038;-71
2022/08/30 04:18:46;;;;;;;2.40;1.92;;;23.10;60.20;;;;;;6215203;28;20034;-71
2022/08/30 04:21:48;;;;;;;3.20;2.00;;;23.20;60.30;;;;;;6217074;28;20715;-71
2022/08/30 04:24:49;;;;;;;2.30;1.73;;;23.20;60.30;;;;;;6216929;28;20400;-71
2022/08/30 04:27:49;;;;;;;2.50;2.10;;;23.20;60.30;;;;;;6215744;28;20057;-71
2022/08/30 04:30:50;;;;;;;2.13;1.70;;;23.20;60.30;;;;;;6215157;28;20044;-71
2022/08/30 04:33:51;;;;;;;2.50;2.00;;;23.20;60.30;;;;;;6215217;28;20114;-71
2022/08/30 04:36:51;;;;;;;2.08;1.88;;;23.20;60.30;;;;;;6214986;28;20492;-71
2022/08/30 04:39:59;;;;;;;2.33;1.92;;;23.10;60.20;;;;;;6214931;28;20033;-71
2022/08/30 04:42:59;;;;;;;2.58;1.73;;;23.10;60.20;;;;;;6214773;28;20377;-71
2022/08/30 04:46:05;;;;;;;1.73;1.60;;;23.10;60.20;;;;;;6220828;28;20463;-71
2022/08/30 04:49:06;;;;;;;2.72;1.88;;;23.10;60.20;;;;;;6214524;28;20516;-71
2022/08/30 04:52:07;;;;;;;1.73;1.63;;;23.10;60.20;;;;;;6215103;28;20038;-71
2022/08/30 04:55:09;;;;;;;2.17;1.70;;;23.10;60.30;;;;;;6220896;28;20029;-71
2022/08/30 04:58:10;;;;;;;2.33;1.95;;;23.20;60.30;;;;;;6216192;28;20040;-71
2022/08/30 05:01:21;;;;;;;1.92;1.60;;;23.20;60.30;;;;;;6211429;28;20031;-71
2022/08/30 05:04:22;;;;;;;2.35;1.83;;;23.10;60.30;;;;;;6196282;28;20041;-71
2022/08/30 05:07:22;;;;;;;1.85;1.60;;;23.10;60.30;;;;;;6215588;28;20029;-71
2022/08/30 05:10:24;;;;;;;2.10;1.90;;;23.10;61.10;;;;;;6222080;28;20038;-71
2022/08/30 05:13:24;;;;;;;2.88;1.85;;;23.10;60.20;;;;;;6210069;28;20033;-71
2022/08/30 05:16:25;;;;;;;2.50;1.80;;;23.10;60.20;;;;;;6211694;28;20484;-71
2022/08/30 05:19:26;;;;;;;2.00;1.80;;;23.20;60.30;;;;;;6209666;28;20113;-71
2022/08/30 05:22:27;;;;;;;2.53;1.77;;;23.10;60.20;;;;;;6213489;28;20022;-72
2022/08/30 05:25:31;;;;;;;2.72;2.05;;;23.20;60.20;;;;;;6217904;28;20049;-71
2022/08/30 05:28:33;;;;;;;2.15;1.67;;;23.20;60.20;;;;;;6213059;28;20610;-72
2022/08/30 05:31:35;;;;;;;5.05;1.80;;;23.10;59.70;;;;;;6212142;28;20022;-71
2022/08/30 05:34:35;;;;;;;3.40;1.95;;;23.20;59.50;;;;;;6215509;28;20503;-71
2022/08/30 05:37:36;;;;;;;4.78;1.85;;;23.10;59.30;;;;;;6212521;28;20079;-71
2022/08/30 05:40:41;;;;;;;2.40;1.90;;;23.10;59.10;;;;;;6220671;28;20033;-71
2022/08/30 05:43:41;;;;;;;2.47;1.60;;;23.10;59.00;;;;;;6232385;28;20072;-71
2022/08/30 05:46:44;;;;;;;5.38;1.77;;;23.10;58.80;;;;;;6243101;28;20037;-71
2022/08/30 05:49:46;;;;;;;4.47;1.77;;;23.10;59.10;;;;;;6214284;28;20026;-71
2022/08/30 05:52:46;;;;;;;2.50;1.92;;;23.10;58.80;;;;;;6212238;28;20053;-71
2022/08/30 05:55:47;;;;;;;3.42;2.10;;;23.10;58.80;;;;;;6218803;28;20040;-71
2022/08/30 05:58:48;;;;;;;2.70;1.80;;;23.10;58.80;;;;;;6242793;28;20510;-72
2022/08/30 06:01:48;;;;;;;2.42;1.90;;;23.10;58.80;;;;;;6207975;28;20135;-72
2022/08/30 06:04:49;;;;;;;3.10;1.63;;;23.10;59.00;;;;;;6207256;28;20041;-71
2022/08/30 06:07:50;;;;;;;3.92;1.70;;;23.10;59.10;;;;;;6234948;28;20021;-72
2022/08/30 06:10:51;;;;;;;2.50;1.70;;;23.10;58.90;;;;;;6210021;28;20537;-71
2022/08/30 06:13:53;;;;;;;3.97;2.10;;;23.10;59.10;;;;;;6219195;28;20387;-71
2022/08/30 06:16:53;;;;;;;2.30;1.63;;;23.10;59.10;;;;;;6233531;28;20060;-72
2022/08/30 06:19:54;;;;;;;2.70;1.80;;;23.10;59.20;;;;;;6221084;28;20045;-71
2022/08/30 06:22:55;;;;;;;5.88;1.95;;;23.10;59.00;;;;;;6272452;28;20496;-71
2022/08/30 06:26:01;;;;;;;2.22;1.75;;;23.10;59.20;;;;;;6274561;28;20060;-71
2022/08/30 06:29:02;;;;;;;4.43;2.38;;;23.10;59.20;;;;;;6295096;28;20449;-71
2022/08/30 06:32:03;;;;;;;3.58;1.95;;;23.10;59.10;;;;;;6277393;28;20052;-71
2022/08/30 06:35:05;;;;;;;3.05;1.85;;;23.10;59.40;;;;;;6266306;28;20435;-72
2022/08/30 06:38:06;;;;;;;2.50;1.88;;;23.10;59.30;;;;;;6291538;28;20794;-71
2022/08/30 06:41:12;;;;;;;4.72;2.00;;;23.10;59.40;;;;;;6286830;28;20153;-71
2022/08/30 06:44:13;;;;;;;3.28;1.90;;;23.10;59.30;;;;;;6259604;28;20407;-71
2022/08/30 06:47:13;;;;;;;5.00;2.03;;;23.10;59.50;;;;;;6283167;28;20028;-71
2022/08/30 06:50:16;;;;;;;2.83;1.58;;;23.10;59.70;;;;;;6294363;28;20541;-72
2022/08/30 06:53:16;;;;;;;2.58;1.63;;;23.10;59.80;;;;;;6246501;28;20057;-71
2022/08/30 06:56:18;;;;;;;2.75;1.63;;;23.10;59.80;;;;;;6222913;28;20029;-71
2022/08/30 06:59:18;;;;;;;3.30;1.60;;;23.10;60.00;;;;;;6243787;28;20032;-71
2022/08/30 07:02:19;;;;;;;3.47;1.67;;;23.20;59.90;;;;;;6228822;28;20030;-71
2022/08/30 07:05:22;;;;;;;12.85;2.08;;;23.20;59.70;;;;;;6218382;28;20061;-72
2022/08/30 07:08:24;;;;;;;224.27;52.50;;;23.20;59.60;;;;;;6227847;28;20033;-71
2022/08/30 07:11:31;;;;;;;178.23;52.60;;;23.30;59.90;;;;;;6222189;28;20018;-71
2022/08/30 07:14:32;;;;;;;163.07;50.95;;;23.30;60.00;;;;;;6242773;28;20102;-71
2022/08/30 07:20:53;;;;;;;139.68;42.10;;;23.40;60.20;;;;;;6221807;28;20021;-70
2022/08/30 07:23:56;;;;;;;114.15;38.60;;;23.40;60.40;;;;;;6216209;28;20037;-71
2022/08/30 07:26:56;;;;;;;110.50;32.72;;;23.30;61.00;;;;;;6228551;28;20022;-71
2022/08/30 07:29:58;;;;;;;90.35;32.72;;;23.30;61.00;;;;;;6217295;28;20530;-71
2022/08/30 07:32:58;;;;;;;95.70;31.95;;;23.30;60.80;;;;;;6228520;28;20479;-71
2022/08/30 07:35:59;;;;;;;74.13;27.50;;;23.20;60.70;;;;;;6241954;28;20033;-71
2022/08/30 07:39:00;;;;;;;69.28;24.52;;;23.20;60.80;;;;;;6218717;28;20036;-71
2022/08/30 07:42:01;;;;;;;66.05;22.30;;;23.20;60.90;;;;;;6217870;28;20085;-71
2022/08/30 07:45:02;;;;;;;59.20;20.15;;;23.10;60.90;;;;;;6226931;28;20082;-71
2022/08/30 07:48:04;;;;;;;59.28;19.92;;;23.10;60.90;;;;;;6226521;28;20052;-71
2022/08/30 07:51:08;;;;;;;54.72;17.98;;;23.10;61.00;;;;;;6241607;28;20417;-71
2022/08/30 07:54:09;;;;;;;43.10;15.98;;;23.10;61.00;;;;;;6217979;28;20037;-71
2022/08/30 07:57:10;;;;;;;37.58;13.85;;;23.10;61.10;;;;;;6216195;28;20029;-71
2022/08/30 08:00:11;;;;;;;34.50;13.40;;;23.10;61.10;;;;;;6240653;28;20021;-71
2022/08/30 08:03:12;;;;;;;31.45;11.93;;;23.10;61.20;;;;;;6227054;28;20037;-71
2022/08/30 08:06:14;;;;;;;30.50;12.60;;;23.00;61.00;;;;;;6213545;28;20504;-71
2022/08/30 08:09:15;;;;;;;36.25;11.30;;;23.10;61.10;;;;;;6212356;28;20539;-71
2022/08/30 08:12:16;;;;;;;28.23;9.98;;;23.20;61.00;;;;;;6212305;28;20097;-71
2022/08/30 08:15:16;;;;;;;25.60;10.38;;;23.20;60.80;;;;;;6200530;28;20044;-71
2022/08/30 08:18:17;;;;;;;21.75;9.65;;;23.20;60.80;;;;;;6206611;28;20078;-71
2022/08/30 08:21:18;;;;;;;21.67;8.57;;;23.30;60.70;;;;;;6203199;28;20072;-71
2022/08/30 08:24:19;;;;;;;24.55;8.30;;;23.30;60.60;;;;;;6220109;28;20530;-71
2022/08/30 08:27:19;;;;;;;18.20;8.63;;;23.30;60.60;;;;;;6203894;28;20030;-71
2022/08/30 08:30:21;;;;;;;17.75;7.97;;;23.30;60.60;;;;;;6205425;28;20034;-71
2022/08/30 08:33:23;;;;;;;19.92;7.60;;;23.30;60.60;;;;;;6202213;28;20033;-71
2022/08/30 08:36:23;;;;;;;16.10;7.75;;;23.30;60.60;;;;;;6212539;28;20026;-72
2022/08/30 08:39:24;;;;;;;20.25;8.70;;;23.30;60.80;;;;;;6228371;28;20708;-71
2022/08/30 08:43:04;;;;;;;26.77;9.05;;;23.30;60.70;;;;;;6238347;28;20041;-72
2022/08/30 08:46:19;;;;;;;60.38;17.60;;;23.30;60.60;;;;;;6213230;28;20034;-73
2022/08/30 08:49:20;;;;;;;;;;;23.30;60.50;;;;;;6227050;28;20097;-71
2022/08/30 08:55:50;;;;;;;236.07;54.88;;;23.40;61.30;;;;;;6213330;28;20027;-69
2022/08/30 08:58:54;;;;;;;258.10;68.03;;;23.40;61.30;;;;;;6229093;28;20476;-71
2022/08/30 09:02:00;;;;;;;206.95;55.05;;;23.40;61.20;;;;;;6239868;28;20025;-71
2022/08/30 09:05:02;;;;;;;172.50;47.03;;;23.40;61.00;;;;;;6217349;28;20041;-71
2022/08/30 09:08:07;;;;;;;149.30;45.65;;;23.40;60.90;;;;;;6213791;28;20655;-72
2022/08/30 09:11:15;;;;;;;164.63;49.72;;;23.40;61.10;;;;;;6238700;28;20053;-72
2022/08/30 09:14:20;;;;;;;135.10;44.40;;;23.30;61.00;;;;;;6229693;28;20030;-72
2022/08/30 09:17:22;;;;;;;143.18;42.95;;;23.40;61.20;;;;;;6214485;28;20067;-71
2022/08/30 09:20:51;;;;;;;126.97;41.42;;;23.30;61.20;;;;;;6231215;28;20018;-71
2022/08/30 09:24:03;;;;;;;118.97;41.35;;;23.30;61.10;;;;;;6228500;28;20402;-72
2022/08/30 09:27:20;;;;;;;118.75;39.55;;;23.30;61.10;;;;;;6214175;28;20038;-71
2022/08/30 09:30:28;;;;;;;130.40;40.00;;;23.30;61.10;;;;;;6227668;28;20472;-71
2022/08/30 09:33:30;;;;;;;109.05;39.05;;;23.30;61.10;;;;;;6235454;28;20082;-71
2022/08/30 09:36:40;;;;;;;103.82;37.75;;;23.30;61.10;;;;;;6215925;28;20036;-71
2022/08/30 09:39:43;;;;;;;93.20;36.60;;;23.30;61.10;;;;;;6225890;28;20064;-71
2022/08/30 09:43:01;;;;;;;98.60;37.08;;;23.30;61.10;;;;;;6242772;28;20052;-71
2022/08/30 09:46:02;;;;;;;79.90;31.95;;;23.20;61.00;;;;;;6219114;28;20580;-72
2022/08/30 09:49:05;;;;;;;77.53;32.33;;;23.30;61.00;;;;;;6218952;28;20030;-71
2022/08/30 09:52:33;;;;;;;90.90;34.47;;;23.20;61.00;;;;;;6243198;28;20040;-71
2022/08/30 09:55:36;;;;;;;72.88;30.42;;;23.20;61.00;;;;;;6224958;28;21101;-72
2022/08/30 09:58:55;;;;;;;78.13;30.38;;;23.20;61.00;;;;;;6218518;28;20033;-71
2022/08/30 10:02:31;;;;;;;76.00;30.60;;;23.20;60.90;;;;;;6241050;28;20031;-71
2022/08/30 10:05:37;;;;;;;79.38;29.10;;;23.20;60.80;;;;;;6248852;28;20556;-71
2022/08/30 10:08:50;;;;;;;79.90;29.05;;;23.20;60.80;;;;;;6205866;28;20042;-71
2022/08/30 10:12:29;;;;;;;67.53;28.65;;;23.20;60.80;;;;;;6214383;28;20029;-71
2022/08/30 10:15:37;;;;;;;67.30;27.40;;;23.20;60.80;;;;;;6226908;28;20042;-71
2022/08/30 10:19:01;;;;;;;65.25;27.33;;;23.20;60.80;;;;;;6241185;28;20052;-71
2022/08/30 10:22:08;;;;;;;65.85;26.65;;;23.20;60.80;;;;;;6215125;28;20029;-71
2022/08/30 10:25:35;;;;;;;59.22;26.50;;;23.20;60.80;;;;;;6224368;28;20034;-73
2022/08/30 10:28:49;;;;;;;58.47;25.27;;;23.20;60.80;;;;;;6224225;28;20018;-71
2022/08/30 10:31:55;;;;;;;56.80;25.40;;;23.20;60.80;;;;;;6234701;28;20033;-72
2022/08/30 10:35:09;;;;;;;51.90;24.65;;;23.20;60.90;;;;;;6235229;28;20112;-71
2022/08/30 10:38:30;;;;;;;63.40;24.25;;;23.20;60.80;;;;;;6217549;28;20488;-71
2022/08/30 10:41:36;;;;;;;56.15;23.30;;;23.20;60.90;;;;;;6230692;28;20053;-71
2022/08/30 10:44:44;;;;;;;52.80;22.50;;;23.20;60.80;;;;;;6230733;28;20501;-71
2022/08/30 10:48:01;;;;;;;54.50;23.67;;;23.20;60.80;;;;;;6238812;28;20419;-72
2022/08/30 10:51:10;;;;;;;46.22;21.85;;;23.20;60.80;;;;;;6228284;28;20392;-71
2022/08/30 10:54:49;;;;;;;46.03;23.08;;;23.20;60.80;;;;;;6216793;28;20030;-71
2022/08/30 10:57:50;;;;;;;45.60;21.50;;;23.20;60.80;;;;;;6251072;28;20038;-72
2022/08/30 11:01:28;;;;;;;45.22;21.20;;;23.20;60.80;;;;;;6231073;28;20018;-71
2022/08/30 11:04:47;;;;;;;42.78;20.88;;;23.20;60.80;;;;;;6217459;28;20022;-72
2022/08/30 11:08:16;;;;;;;47.05;21.85;;;23.20;60.80;;;;;;6225418;28;20079;-71
2022/08/30 11:11:37;;;;;;;38.95;20.35;;;23.20;60.80;;;;;;6226222;28;20033;-71
2022/08/30 11:14:41;;;;;;;37.92;19.90;;;23.20;60.80;;;;;;6222774;28;20547;-71
2022/08/30 11:18:20;;;;;;;34.78;18.27;;;23.20;60.80;;;;;;6248866;28;20078;-73
2022/08/30 11:21:41;;;;;;;36.60;19.27;;;23.20;60.80;;;;;;6215713;28;20459;-73
2022/08/30 11:25:14;;;;;;;41.03;18.42;;;23.20;60.80;;;;;;6323148;28;20027;-71
2022/08/30 11:28:34;;;;;;;37.40;18.92;;;23.20;60.70;;;;;;6212094;28;20022;-71
2022/08/30 11:31:38;;;;;;;42.00;18.35;;;23.20;60.70;;;;;;6222106;28;20033;-71
2022/08/30 11:34:45;;;;;;;35.03;17.48;;;23.20;60.70;;;;;;6240303;28;20049;-72
2022/08/30 11:37:47;;;;;;;37.38;17.85;;;23.20;60.70;;;;;;6217213;28;20498;-71
2022/08/30 11:41:05;;;;;;;32.28;16.90;;;23.20;60.70;;;;;;6216270;28;20033;-71
2022/08/30 11:44:21;;;;;;;32.92;16.45;;;23.10;60.20;;;;;;6231526;28;20050;-71
2022/08/30 11:47:38;;;;;;;33.15;15.98;;;23.10;60.70;;;;;;6225554;28;20097;-71
2022/08/30 11:51:05;;;;;;;30.15;15.43;;;23.10;60.60;;;;;;6221631;28;20045;-71
2022/08/30 11:54:18;;;;;;;26.05;13.15;;;23.10;60.60;;;;;;6190073;28;20056;-71
2022/08/30 11:57:25;;;;;;;25.42;13.13;;;23.10;60.60;;;;;;6231215;28;20547;-71
2022/08/30 12:00:35;;;;;;;21.10;12.10;;;23.10;60.40;;;;;;6239432;28;20514;-72
2022/08/30 12:03:36;;;;;;;24.42;13.23;;;23.10;60.60;;;;;;6209982;28;20026;-71
2022/08/30 12:06:40;;;;;;;21.92;10.75;;;23.10;60.60;;;;;;6216821;28;20107;-71
2022/08/30 12:10:02;;;;;;;18.30;10.98;;;23.10;60.50;;;;;;6218350;28;20029;-71
2022/08/30 12:13:03;;;;;;;21.33;9.75;;;23.10;60.50;;;;;;6226805;28;20052;-71
2022/08/30 12:16:11;;;;;;;19.77;9.30;;;23.10;60.40;;;;;;6235998;28;20387;-71
2022/08/30 12:19:18;;;;;;;18.00;9.35;;;23.00;60.40;;;;;;6213780;28;20582;-71
2022/08/30 12:22:21;;;;;;;15.52;8.07;;;23.00;60.40;;;;;;6221878;28;20021;-72
2022/08/30 12:25:24;;;;;;;14.27;7.88;;;23.00;60.40;;;;;;6245348;28;20166;-71
2022/08/30 12:28:25;;;;;;;14.13;8.02;;;23.00;60.40;;;;;;6218451;28;20018;-72
2022/08/30 12:31:26;;;;;;;11.15;7.38;;;23.00;60.30;;;;;;6215142;28;20099;-71
2022/08/30 12:34:48;;;;;;;10.13;6.47;;;23.00;60.20;;;;;;6236665;28;20585;-71
2022/08/30 12:38:02;;;;;;;12.13;6.28;;;23.00;60.20;;;;;;6224740;28;20026;-72
2022/08/30 12:41:03;;;;;;;12.10;6.45;;;23.00;59.80;;;;;;6214489;28;20702;-71
2022/08/30 12:44:11;;;;;;;10.07;5.45;;;23.10;60.00;;;;;;6225284;28;20099;-71
2022/08/30 12:47:13;;;;;;;8.85;4.95;;;23.10;59.80;;;;;;6218878;28;20392;-71
2022/08/30 12:50:31;;;;;;;9.32;5.30;;;23.10;59.40;;;;;;6239061;28;20056;-71
2022/08/30 12:53:40;;;;;;;7.22;4.18;;;23.10;59.90;;;;;;6210438;28;20038;-71
2022/08/30 12:57:00;;;;;;;9.63;4.78;;;23.00;59.80;;;;;;6213267;28;20053;-72
2022/08/30 13:00:02;;;;;;;7.75;4.35;;;23.00;59.80;;;;;;6214135;28;20053;-71
2022/08/30 13:03:27;;;;;;;8.50;4.25;;;23.00;59.80;;;;;;6212658;28;20026;-71
2022/08/30 13:06:36;;;;;;;6.35;3.63;;;23.00;59.70;;;;;;6218790;28;20598;-71
2022/08/30 13:09:41;;;;;;;6.78;4.28;;;23.00;60.60;;;;;;6196242;28;20671;-71
2022/08/30 13:12:57;;;;;;;7.47;3.78;;;23.00;59.80;;;;;;6217654;28;20040;-72
2022/08/30 13:16:20;;;;;;;8.13;3.80;;;23.00;59.80;;;;;;6225507;28;20034;-71
2022/08/30 13:19:35;;;;;;;5.30;3.40;;;23.00;59.70;;;;;;6212970;28;20032;-72
2022/08/30 13:22:41;;;;;;;7.10;4.10;;;23.00;59.10;;;;;;6214568;28;20671;-71
2022/08/30 13:25:41;;;;;;;7.53;3.30;;;23.00;60.10;;;;;;6232687;28;20524;-72
2022/08/30 13:28:54;;;;;;;4.07;3.17;;;23.00;59.40;;;;;;6213386;28;20054;-71
2022/08/30 13:31:55;;;;;;;4.40;3.10;;;23.00;58.80;;;;;;6214154;28;20026;-71
2022/08/30 13:34:56;;;;;;;6.68;3.20;;;23.00;59.40;;;;;;6215149;28;20101;-72
2022/08/30 13:37:59;;;;;;;5.32;3.00;;;23.00;59.40;;;;;;6213157;28;20037;-71
2022/08/30 13:40:59;;;;;;;5.50;3.03;;;23.00;59.40;;;;;;6213798;28;20109;-72
2022/08/30 13:44:03;;;;;;;5.45;2.97;;;23.00;58.90;;;;;;6214180;28;20119;-72
2022/08/30 13:47:04;;;;;;;3.70;3.00;;;23.00;59.50;;;;;;6212372;28;20052;-72
2022/08/30 13:50:05;;;;;;;6.05;3.00;;;23.00;59.40;;;;;;6229268;28;20022;-71
2022/08/30 13:53:07;;;;;;;4.18;3.05;;;23.10;59.80;;;;;;6231386;28;20019;-72
2022/08/30 13:56:08;;;;;;;4.75;3.17;;;23.00;58.70;;;;;;6217214;28;20045;-71
2022/08/30 13:59:09;;;;;;;4.45;2.80;;;23.10;59.00;;;;;;6219103;28;20491;-71
2022/08/30 14:02:09;;;;;;;4.40;2.60;;;23.10;59.40;;;;;;6238159;28;20046;-71
2022/08/30 14:05:10;;;;;;;4.15;3.05;;;23.00;59.30;;;;;;6215390;28;20034;-72
2022/08/30 14:08:13;;;;;;;3.78;2.50;;;23.00;59.30;;;;;;6213163;28;20256;-72
2022/08/30 14:11:17;;;;;;;4.95;3.05;;;23.00;58.90;;;;;;6236608;28;20021;-72
2022/08/30 14:14:18;;;;;;;3.90;2.78;;;23.00;59.20;;;;;;6223515;28;20060;-72
2022/08/30 14:17:18;;;;;;;6.07;3.20;;;23.00;59.40;;;;;;6209939;28;20508;-71
2022/08/30 14:20:19;;;;;;;4.05;2.60;;;23.00;58.50;;;;;;6212083;28;20026;-71
2022/08/30 14:23:20;;;;;;;4.30;2.70;;;23.10;59.30;;;;;;6215229;28;20588;-72
2022/08/30 14:26:34;;;;;;;4.03;2.63;;;23.00;59.10;;;;;;6215815;28;20112;-71
2022/08/30 14:29:35;;;;;;;4.55;2.20;;;23.00;59.00;;;;;;6217677;28;20041;-72
2022/08/30 14:32:35;;;;;;;3.65;2.33;;;23.00;59.00;;;;;;6241282;28;20033;-72
2022/08/30 14:35:36;;;;;;;3.33;2.28;;;23.10;59.60;;;;;;6226582;28;20026;-73
2022/08/30 14:38:37;;;;;;;5.07;2.33;;;23.10;59.20;;;;;;6216457;28;20022;-72
2022/08/30 14:41:44;;;;;;;4.28;2.00;;;23.00;59.10;;;;;;6217252;28;20058;-71
2022/08/30 14:44:45;;;;;;;3.47;2.17;;;23.00;59.20;;;;;;6215493;28;20234;-72
2022/08/30 14:47:46;;;;;;;3.65;1.95;;;23.00;59.30;;;;;;6216255;28;20095;-72
2022/08/30 14:50:47;;;;;;;3.63;2.13;;;23.00;58.90;;;;;;6230764;28;20049;-72
2022/08/30 14:53:51;;;;;;;2.53;1.95;;;23.00;60.00;;;;;;6243224;28;20026;-72
2022/08/30 14:56:52;;;;;;;4.43;2.42;;;23.00;59.20;;;;;;6214260;28;20686;-72
2022/08/30 14:59:53;;;;;;;2.80;2.00;;;23.00;59.40;;;;;;6222206;28;20487;-72
2022/08/30 15:02:53;;;;;;;2.53;1.73;;;23.00;59.40;;;;;;6241023;28;20090;-72
2022/08/30 15:05:54;;;;;;;3.72;1.85;;;23.00;59.50;;;;;;6220804;28;20048;-72
2022/08/30 15:08:55;;;;;;;4.53;2.60;;;23.00;59.50;;;;;;6227902;28;20022;-72
2022/08/30 15:11:58;;;;;;;4.10;2.60;;;23.00;59.50;;;;;;6216066;28;20049;-72
2022/08/30 15:14:59;;;;;;;3.13;1.95;;;23.00;59.50;;;;;;6219540;28;20117;-71
2022/08/30 15:17:59;;;;;;;3.28;2.55;;;23.00;59.60;;;;;;6240166;28;20029;-72
2022/08/30 15:21:00;;;;;;;2.58;1.90;;;23.00;59.20;;;;;;6231260;28;20026;-72
2022/08/30 15:24:02;;;;;;;3.22;2.30;;;23.00;59.50;;;;;;6220270;28;20037;-72
2022/08/30 15:27:03;;;;;;;5.65;2.60;;;23.00;59.40;;;;;;6213865;28;20034;-71
2022/08/30 15:30:05;;;;;;;2.88;2.08;;;23.00;59.30;;;;;;6221493;28;20384;-71
2022/08/30 15:33:06;;;;;;;4.18;1.92;;;23.00;59.50;;;;;;6239815;28;20370;-72
2022/08/30 15:36:07;;;;;;;3.60;2.00;;;23.00;58.20;;;;;;6218270;28;20025;-71
2022/08/30 15:39:09;;;;;;;2.85;2.00;;;23.00;59.30;;;;;;6215611;28;20026;-73
2022/08/30 15:42:10;;;;;;;4.15;2.20;;;23.00;59.00;;;;;;6237820;28;20050;-72
2022/08/30 15:45:10;;;;;;;3.50;2.17;;;23.00;59.50;;;;;;6215608;28;20554;-71
2022/08/30 15:48:11;;;;;;;2.55;1.65;;;23.00;59.50;;;;;;6239355;28;20047;-71
2022/08/30 15:51:12;;;;;;;2.03;1.58;;;23.00;58.70;;;;;;6225368;28;20663;-72
2022/08/30 15:54:16;;;;;;;2.65;1.60;;;23.00;59.40;;;;;;6221176;28;20575;-72
2022/08/30 15:57:17;;;;;;;3.70;1.73;;;23.00;59.40;;;;;;6229201;28;20030;-72
2022/08/30 16:00:18;;;;;;;3.25;1.70;;;23.00;59.30;;;;;;6233088;28;20057;-73
2022/08/30 16:03:18;;;;;;;5.47;1.55;;;23.00;59.10;;;;;;6215573;28;20022;-71